createdAt,value
2023-04-30T00:00:36.471Z,23.00
2023-04-30T00:03:04.726Z,23.10
2023-04-30T00:05:32.951Z,23.00
2023-04-30T00:08:00.768Z,23.00
2023-04-30T00:10:28.921Z,23.00
2023-04-30T00:12:57.280Z,23.00
2023-04-30T00:15:25.076Z,23.00
2023-04-30T00:17:53.433Z,23.00
2023-04-30T00:20:21.514Z,23.00
2023-04-30T00:22:49.349Z,23.00
2023-04-30T00:25:17.489Z,23.00
2023-04-30T00:27:45.371Z,23.00
2023-04-30T00:30:13.357Z,23.00
2023-04-30T00:32:42.339Z,22.90
2023-04-30T00:35:10.369Z,22.90
2023-04-30T00:37:38.277Z,22.90
2023-04-30T00:40:06.914Z,23.00
2023-04-30T00:42:34.939Z,23.00
2023-04-30T00:45:02.879Z,22.90
2023-04-30T00:47:32.252Z,22.90
2023-04-30T00:50:00.371Z,22.80
2023-04-30T00:52:28.346Z,22.90
2023-04-30T00:54:56.511Z,22.90
2023-04-30T00:57:25.178Z,22.80
2023-04-30T00:59:53.748Z,22.80
2023-04-30T01:02:21.937Z,22.80
2023-04-30T01:04:51.084Z,22.80
2023-04-30T01:07:19.353Z,22.80
2023-04-30T01:09:47.263Z,22.80
2023-04-30T01:12:30.881Z,22.80
2023-04-30T01:15:20.112Z,22.80
2023-04-30T01:18:04.262Z,22.80
2023-04-30T01:20:32.266Z,22.90
2023-04-30T01:23:22.800Z,22.80
2023-04-30T01:26:30.159Z,22.80
2023-04-30T01:29:00.254Z,22.80
2023-04-30T01:31:28.906Z,22.90
2023-04-30T01:33:57.143Z,22.90
2023-04-30T01:36:35.186Z,22.90
2023-04-30T01:39:16.151Z,22.90
2023-04-30T01:42:20.750Z,22.90
2023-04-30T01:45:22.959Z,22.80
2023-04-30T01:48:12.012Z,22.80
2023-04-30T01:50:58.953Z,22.80
2023-04-30T01:53:38.436Z,22.80
2023-04-30T01:56:12.395Z,22.80
2023-04-30T01:58:41.225Z,22.80
2023-04-30T02:01:30.418Z,22.80
2023-04-30T02:03:58.790Z,22.70
2023-04-30T02:10:55.954Z,22.80
2023-04-30T02:13:23.909Z,22.70
2023-04-30T02:15:51.830Z,22.70
2023-04-30T02:18:19.846Z,22.80
2023-04-30T02:20:48.400Z,22.80
2023-04-30T02:23:16.266Z,22.80
2023-04-30T02:25:44.790Z,22.80
2023-04-30T02:28:12.737Z,22.80
2023-04-30T02:30:40.785Z,22.70
2023-04-30T02:33:12.393Z,22.70
2023-04-30T02:35:43.013Z,22.60
2023-04-30T02:38:10.876Z,22.60
2023-04-30T02:40:38.526Z,22.50
2023-04-30T02:43:06.593Z,22.60
2023-04-30T02:45:34.464Z,22.60
2023-04-30T02:48:02.420Z,22.60
2023-04-30T02:50:30.359Z,22.50
2023-04-30T02:52:58.504Z,22.50
2023-04-30T02:55:26.271Z,22.50
2023-04-30T02:57:54.164Z,22.60
2023-04-30T03:00:22.152Z,22.50
2023-04-30T03:02:50.481Z,22.50
2023-04-30T03:05:18.781Z,22.50
2023-04-30T03:07:46.594Z,22.50
2023-04-30T03:10:14.516Z,22.50
2023-04-30T03:12:42.691Z,22.50
2023-04-30T03:15:10.805Z,22.50
2023-04-30T03:17:38.699Z,22.50
2023-04-30T03:20:07.462Z,22.50
2023-04-30T03:22:35.411Z,22.40
2023-04-30T03:25:03.533Z,22.40
2023-04-30T03:27:31.433Z,22.50
2023-04-30T03:29:59.557Z,22.50
2023-04-30T03:32:27.729Z,22.50
2023-04-30T03:34:55.987Z,22.50
2023-04-30T03:37:23.990Z,22.40
2023-04-30T03:39:51.838Z,22.50
2023-04-30T03:42:19.707Z,22.50
2023-04-30T03:44:47.561Z,22.40
2023-04-30T03:47:15.308Z,22.40
2023-04-30T03:49:43.208Z,22.40
2023-04-30T03:52:11.481Z,22.50
2023-04-30T03:54:39.561Z,22.40
2023-04-30T03:57:10.774Z,22.40
2023-04-30T03:59:38.592Z,22.40
2023-04-30T04:02:07.530Z,22.40
2023-04-30T04:04:35.538Z,22.40
2023-04-30T04:07:03.931Z,22.40
2023-04-30T04:09:31.890Z,22.40
2023-04-30T04:11:59.692Z,22.40
2023-04-30T04:14:27.743Z,22.40
2023-04-30T04:16:58.020Z,22.40
2023-04-30T04:19:26.879Z,22.40
2023-04-30T04:21:54.905Z,22.40
2023-04-30T04:24:25.360Z,22.30
2023-04-30T04:26:53.986Z,22.30
2023-04-30T04:29:22.195Z,22.30
2023-04-30T04:31:51.261Z,22.30
2023-04-30T04:34:20.287Z,22.30
2023-04-30T04:36:48.275Z,22.30
2023-04-30T04:39:16.409Z,22.30
2023-04-30T04:41:44.218Z,22.30
2023-04-30T04:44:12.292Z,22.30
2023-04-30T04:46:42.417Z,22.30
2023-04-30T04:49:10.764Z,22.30
2023-04-30T04:51:39.755Z,22.30
2023-04-30T04:54:08.390Z,22.30
2023-04-30T04:56:36.262Z,22.30
2023-04-30T04:59:04.317Z,22.30
2023-04-30T05:01:32.265Z,22.30
2023-04-30T05:04:00.316Z,22.20
2023-04-30T05:06:28.779Z,22.30
2023-04-30T05:08:56.967Z,22.30
2023-04-30T05:11:24.964Z,22.30
2023-04-30T05:13:53.224Z,22.40
2023-04-30T05:16:21.191Z,22.30
2023-04-30T05:18:49.148Z,22.30
2023-04-30T05:21:17.046Z,22.30
2023-04-30T05:23:45.297Z,22.30
2023-04-30T05:26:13.402Z,22.30
2023-04-30T05:28:41.442Z,22.40
2023-04-30T05:31:09.588Z,22.40
2023-04-30T05:33:37.457Z,22.40
2023-04-30T05:36:05.867Z,22.40
2023-04-30T05:38:34.042Z,22.40
2023-04-30T05:41:02.233Z,22.40
2023-04-30T05:43:30.119Z,22.40
2023-04-30T05:45:58.076Z,22.30
2023-04-30T05:48:26.631Z,22.30
2023-04-30T05:50:54.556Z,22.30
2023-04-30T05:53:22.730Z,22.40
2023-04-30T05:55:51.328Z,22.40
2023-04-30T05:58:19.510Z,22.40
2023-04-30T06:00:51.060Z,22.40
2023-04-30T06:03:19.735Z,22.40
2023-04-30T06:05:48.160Z,22.40
2023-04-30T06:08:16.228Z,22.40
2023-04-30T06:10:44.334Z,22.30
2023-04-30T06:13:12.418Z,22.30
2023-04-30T06:15:41.834Z,22.40
2023-04-30T06:18:09.789Z,22.40
2023-04-30T06:20:37.736Z,22.30
2023-04-30T06:23:05.982Z,22.30
2023-04-30T06:25:34.104Z,22.30
2023-04-30T06:28:02.163Z,22.30
2023-04-30T06:30:31.889Z,22.40
2023-04-30T06:32:59.994Z,22.50
2023-04-30T06:35:28.071Z,22.50
2023-04-30T06:37:55.854Z,22.50
2023-04-30T06:40:23.916Z,22.50
2023-04-30T06:42:51.904Z,22.50
2023-04-30T06:45:20.024Z,22.50
2023-04-30T06:47:48.103Z,22.40
2023-04-30T06:50:16.204Z,22.50
2023-04-30T06:52:44.462Z,22.50
2023-04-30T06:55:12.449Z,22.40
2023-04-30T06:57:40.587Z,22.40
2023-04-30T07:00:09.264Z,22.40
2023-04-30T07:02:37.343Z,22.50
2023-04-30T07:05:05.402Z,22.40
2023-04-30T07:07:33.895Z,22.50
2023-04-30T07:10:01.658Z,22.50
2023-04-30T07:12:29.771Z,22.50
2023-04-30T07:14:57.816Z,22.40
2023-04-30T07:17:27.518Z,22.50
2023-04-30T07:19:56.207Z,22.50
2023-04-30T07:22:24.338Z,22.40
2023-04-30T07:24:52.185Z,22.50
2023-04-30T07:27:20.152Z,22.50
2023-04-30T07:29:48.728Z,22.50
2023-04-30T07:32:17.157Z,22.50
2023-04-30T07:34:44.983Z,22.50
2023-04-30T07:37:13.708Z,22.50
2023-04-30T07:39:41.705Z,22.50
2023-04-30T07:42:09.750Z,22.50
2023-04-30T07:44:37.714Z,22.60
2023-04-30T07:47:05.992Z,22.60
2023-04-30T07:49:34.135Z,22.60
2023-04-30T07:52:02.171Z,22.70
2023-04-30T07:54:30.141Z,22.70
2023-04-30T07:56:58.163Z,22.70
2023-04-30T07:59:26.093Z,22.80
2023-04-30T08:01:54.225Z,22.80
2023-04-30T08:04:22.392Z,22.80
2023-04-30T08:06:50.769Z,22.80
2023-04-30T08:09:19.028Z,22.80
2023-04-30T08:11:47.047Z,22.80
2023-04-30T08:14:14.853Z,22.70
2023-04-30T08:16:42.898Z,22.70
2023-04-30T08:19:10.919Z,22.70
2023-04-30T08:21:39.316Z,22.70
2023-04-30T08:24:07.332Z,22.70
2023-04-30T08:26:35.517Z,22.60
2023-04-30T08:29:03.574Z,22.70
2023-04-30T08:31:31.688Z,22.70
2023-04-30T08:33:59.718Z,22.70
2023-04-30T08:36:28.029Z,22.70
2023-04-30T08:38:55.904Z,22.70
2023-04-30T08:41:27.140Z,22.80
2023-04-30T08:44:00.159Z,22.80
2023-04-30T08:46:31.142Z,22.80
2023-04-30T08:48:59.410Z,22.80
2023-04-30T08:51:31.697Z,22.80
2023-04-30T08:53:59.680Z,22.80
2023-04-30T08:56:29.676Z,22.80
2023-04-30T08:58:57.420Z,22.80
2023-04-30T09:01:27.611Z,22.80
2023-04-30T09:03:56.013Z,22.80
2023-04-30T09:06:24.372Z,22.80
2023-04-30T09:08:52.846Z,22.80
2023-04-30T09:11:30.993Z,22.80
2023-04-30T09:14:01.233Z,22.90
2023-04-30T09:16:49.595Z,22.90
2023-04-30T09:19:31.085Z,23.00
2023-04-30T09:21:59.341Z,23.00
2023-04-30T09:24:27.219Z,23.00
2023-04-30T09:26:55.361Z,23.00
2023-04-30T09:29:36.770Z,23.00
2023-04-30T09:32:11.813Z,22.90
2023-04-30T09:34:40.089Z,22.80
2023-04-30T09:37:08.198Z,22.90
2023-04-30T09:39:57.903Z,22.90
2023-04-30T09:42:25.942Z,22.80
2023-04-30T09:44:54.143Z,22.90
2023-04-30T09:47:22.626Z,23.00
2023-04-30T09:49:54.906Z,23.00
2023-04-30T09:52:23.096Z,23.00
2023-04-30T09:54:51.107Z,22.90
2023-04-30T09:57:23.807Z,23.00
2023-04-30T09:59:53.835Z,23.00
2023-04-30T10:02:24.041Z,23.00
2023-04-30T10:04:58.469Z,22.90
2023-04-30T10:07:34.413Z,22.90
2023-04-30T10:10:05.499Z,22.90
2023-04-30T10:12:54.567Z,22.90
2023-04-30T10:15:54.485Z,23.00
2023-04-30T10:18:33.822Z,22.90
2023-04-30T10:21:10.470Z,22.90
2023-04-30T10:23:44.070Z,22.90
2023-04-30T10:26:12.748Z,23.00
2023-04-30T10:28:42.871Z,23.00
2023-04-30T10:31:12.170Z,23.00
2023-04-30T10:33:58.565Z,23.10
2023-04-30T10:37:01.168Z,23.10
2023-04-30T10:39:30.003Z,23.10
2023-04-30T10:42:10.123Z,23.20
2023-04-30T10:44:38.565Z,23.20
2023-04-30T10:47:07.678Z,23.20
2023-04-30T10:49:35.788Z,23.30
2023-04-30T10:52:06.876Z,23.30
2023-04-30T10:54:36.902Z,23.20
2023-04-30T10:57:12.358Z,23.20
2023-04-30T10:59:45.362Z,23.20
2023-04-30T11:02:17.512Z,23.10
2023-04-30T11:05:10.192Z,23.20
2023-04-30T11:07:48.715Z,23.20
2023-04-30T11:10:17.793Z,23.10
2023-04-30T11:12:50.232Z,23.10
2023-04-30T11:15:21.101Z,23.10
2023-04-30T11:17:50.122Z,23.10
2023-04-30T11:20:23.507Z,23.10
2023-04-30T11:23:24.913Z,23.10
2023-04-30T11:26:01.538Z,23.10
2023-04-30T11:28:31.526Z,23.00
2023-04-30T11:31:01.618Z,23.00
2023-04-30T11:33:31.491Z,22.90
2023-04-30T11:36:01.304Z,22.90
2023-04-30T11:38:36.984Z,23.00
2023-04-30T11:41:05.638Z,23.00
2023-04-30T11:43:35.024Z,23.00
2023-04-30T11:46:12.761Z,23.00
2023-04-30T11:48:43.816Z,23.00
2023-04-30T11:51:24.248Z,22.90
2023-04-30T11:53:53.545Z,23.00
2023-04-30T11:56:25.820Z,23.00
2023-04-30T11:58:55.910Z,22.90
2023-04-30T12:01:28.769Z,22.90
2023-04-30T12:03:57.702Z,22.90
2023-04-30T12:06:28.157Z,23.00
2023-04-30T12:08:57.863Z,22.90
2023-04-30T12:11:31.427Z,22.90
2023-04-30T12:14:12.967Z,22.90
2023-04-30T12:16:46.065Z,22.90
2023-04-30T12:19:14.276Z,22.90
2023-04-30T12:21:45.323Z,22.80
2023-04-30T12:24:14.720Z,22.80
2023-04-30T12:26:43.337Z,22.80
2023-04-30T12:29:19.139Z,22.80
2023-04-30T12:31:52.644Z,22.80
2023-04-30T12:34:20.679Z,22.80
2023-04-30T12:36:48.632Z,22.90
2023-04-30T12:39:16.769Z,22.80
2023-04-30T12:41:49.311Z,22.80
2023-04-30T12:44:27.824Z,22.80
2023-04-30T12:46:57.818Z,22.80
2023-04-30T12:49:31.041Z,22.90
2023-04-30T12:52:23.349Z,23.00
2023-04-30T12:54:51.089Z,23.00
2023-04-30T12:57:19.111Z,23.10
2023-04-30T12:59:52.942Z,23.10
2023-04-30T13:02:24.739Z,23.20
2023-04-30T13:04:53.514Z,23.30
2023-04-30T13:07:21.708Z,23.30
2023-04-30T13:09:49.801Z,23.40
2023-04-30T13:12:18.064Z,23.40
2023-04-30T13:14:46.405Z,23.50
2023-04-30T13:17:14.507Z,23.50
2023-04-30T13:19:42.300Z,23.50
2023-04-30T13:22:10.455Z,23.50
2023-04-30T13:24:38.441Z,23.50
2023-04-30T13:27:06.856Z,23.40
2023-04-30T13:29:34.836Z,23.30
2023-04-30T13:32:02.818Z,23.30
2023-04-30T13:34:31.006Z,23.20
2023-04-30T13:36:58.984Z,23.20
2023-04-30T13:39:27.130Z,23.20
2023-04-30T13:41:55.153Z,23.20
2023-04-30T13:44:23.026Z,23.20
2023-04-30T13:46:51.165Z,23.30
2023-04-30T13:49:19.140Z,23.30
2023-04-30T13:51:47.102Z,23.40
2023-04-30T13:54:15.165Z,23.50
2023-04-30T13:56:43.272Z,23.60
2023-04-30T13:59:11.515Z,23.60
2023-04-30T14:01:40.775Z,23.70
2023-04-30T14:04:08.998Z,23.70
2023-04-30T14:06:38.932Z,23.70
2023-04-30T14:09:07.133Z,23.70
2023-04-30T14:11:35.180Z,23.70
2023-04-30T14:14:03.086Z,23.70
2023-04-30T14:16:31.238Z,23.60
2023-04-30T14:18:59.171Z,23.60
2023-04-30T14:21:29.782Z,23.50
2023-04-30T14:23:57.852Z,23.50
2023-04-30T14:26:25.843Z,23.50
2023-04-30T14:28:53.936Z,23.40
2023-04-30T14:31:22.024Z,23.40
2023-04-30T14:33:50.041Z,23.40
2023-04-30T14:36:18.116Z,23.30
2023-04-30T14:38:46.410Z,23.30
2023-04-30T14:41:14.498Z,23.30
2023-04-30T14:43:42.547Z,23.30
2023-04-30T14:46:12.045Z,23.30
2023-04-30T14:48:40.310Z,23.30
2023-04-30T14:51:08.363Z,23.30
2023-04-30T14:53:37.541Z,23.30
2023-04-30T14:56:07.260Z,23.30
2023-04-30T14:58:35.272Z,23.30
2023-04-30T15:01:03.273Z,23.30
2023-04-30T15:03:31.492Z,23.30
2023-04-30T15:05:59.726Z,23.40
2023-04-30T15:08:27.675Z,23.40
2023-04-30T15:10:56.155Z,23.30
2023-04-30T15:13:24.062Z,23.40
2023-04-30T15:15:52.249Z,23.40
2023-04-30T15:18:20.432Z,23.40
2023-04-30T15:20:48.636Z,23.50
2023-04-30T15:23:17.132Z,23.50
2023-04-30T15:25:45.088Z,23.40
2023-04-30T15:28:13.333Z,23.40
2023-04-30T15:30:41.569Z,23.50
2023-04-30T15:33:09.474Z,23.50
2023-04-30T15:35:37.571Z,23.40
2023-04-30T15:38:05.772Z,23.40
2023-04-30T15:40:33.687Z,23.40
2023-04-30T15:43:01.700Z,23.40
2023-04-30T15:45:30.329Z,23.40
2023-04-30T15:47:58.307Z,23.40
2023-04-30T15:50:27.089Z,23.40
2023-04-30T15:52:55.059Z,23.40
2023-04-30T15:55:24.237Z,23.40
2023-04-30T15:57:52.209Z,23.40
2023-04-30T16:00:21.147Z,23.30
2023-04-30T16:02:49.480Z,23.30
2023-04-30T16:05:17.425Z,23.30
2023-04-30T16:07:45.971Z,23.40
2023-04-30T16:10:14.081Z,23.40
2023-04-30T16:12:42.042Z,23.40
2023-04-30T16:15:10.964Z,23.40
2023-04-30T16:17:39.189Z,23.40
2023-04-30T16:20:08.407Z,23.40
2023-04-30T16:22:37.400Z,23.40
2023-04-30T16:25:07.777Z,23.40
2023-04-30T16:27:37.503Z,23.50
2023-04-30T16:30:06.639Z,23.40
2023-04-30T16:32:34.609Z,23.40
2023-04-30T16:35:02.827Z,23.40
2023-04-30T16:37:31.196Z,23.40
2023-04-30T16:40:00.545Z,23.40
2023-04-30T16:42:30.176Z,23.30
2023-04-30T16:44:58.160Z,23.30
2023-04-30T16:47:26.350Z,23.30
2023-04-30T16:49:55.914Z,23.30
2023-04-30T16:52:23.944Z,23.30
2023-04-30T16:54:51.988Z,23.30
2023-04-30T16:57:20.176Z,23.30
2023-04-30T16:59:48.659Z,23.30
2023-04-30T17:02:19.109Z,23.40
2023-04-30T17:04:47.300Z,23.30
2023-04-30T17:07:16.511Z,23.30
2023-04-30T17:09:44.437Z,23.30
2023-04-30T17:12:12.430Z,23.30
2023-04-30T17:14:40.682Z,23.30
2023-04-30T17:17:08.519Z,23.30
2023-04-30T17:19:36.384Z,23.30
2023-04-30T17:22:04.348Z,23.30
2023-04-30T17:24:32.987Z,23.30
2023-04-30T17:27:01.199Z,23.30
2023-04-30T17:29:29.305Z,23.30
2023-04-30T17:32:00.109Z,23.30
2023-04-30T17:34:28.000Z,23.30
2023-04-30T17:36:55.877Z,23.30
2023-04-30T17:39:25.227Z,23.30
2023-04-30T17:41:53.085Z,23.30
2023-04-30T17:44:21.055Z,23.30
2023-04-30T17:46:49.616Z,23.30
2023-04-30T17:49:17.604Z,23.30
2023-04-30T17:51:46.063Z,23.20
2023-04-30T17:54:14.276Z,23.20
2023-04-30T17:56:42.114Z,23.20
2023-04-30T17:59:10.148Z,23.20
2023-04-30T18:01:38.348Z,23.20
2023-04-30T18:04:08.533Z,23.20
2023-04-30T18:06:36.569Z,23.10
2023-04-30T18:09:04.568Z,23.10
2023-04-30T18:11:33.840Z,23.10
2023-04-30T18:14:02.243Z,23.10
2023-04-30T18:16:30.330Z,23.10
2023-04-30T18:18:58.401Z,23.10
2023-04-30T18:21:27.098Z,23.00
2023-04-30T18:23:55.748Z,23.10
2023-04-30T18:26:24.869Z,23.00
2023-04-30T18:33:18.921Z,23.00
2023-04-30T18:35:49.864Z,22.90
2023-04-30T18:38:18.639Z,22.90
2023-04-30T18:40:46.682Z,22.90
2023-04-30T18:43:16.457Z,22.90
2023-04-30T18:45:44.467Z,22.90
2023-04-30T18:48:15.229Z,22.90
2023-04-30T18:50:43.557Z,22.80
2023-04-30T18:53:11.549Z,22.80
2023-04-30T18:55:39.597Z,22.80
2023-04-30T18:58:08.407Z,22.80
2023-04-30T19:00:36.298Z,22.80
2023-04-30T19:03:04.272Z,22.80
2023-04-30T19:05:35.868Z,22.70
2023-04-30T19:08:03.954Z,22.70
2023-04-30T19:10:34.224Z,22.70
2023-04-30T19:13:02.630Z,22.70
2023-04-30T19:15:30.921Z,22.70
2023-04-30T19:17:59.031Z,22.70
2023-04-30T19:20:27.090Z,22.70
2023-04-30T19:22:54.886Z,22.70
2023-04-30T19:25:23.629Z,22.60
2023-04-30T19:27:51.969Z,22.60
2023-04-30T19:30:19.837Z,22.60
2023-04-30T19:32:48.043Z,22.60
2023-04-30T19:35:16.393Z,22.50
2023-04-30T19:37:45.607Z,22.60
2023-04-30T19:40:14.558Z,22.60
2023-04-30T19:42:42.532Z,22.50
2023-04-30T19:45:11.353Z,22.50
2023-04-30T19:47:39.790Z,22.50
2023-04-30T19:50:08.453Z,22.50
2023-04-30T19:52:36.596Z,22.50
2023-04-30T19:55:04.759Z,22.50
2023-04-30T19:57:35.135Z,22.50
2023-04-30T20:00:06.609Z,22.40
2023-04-30T20:02:37.771Z,22.50
2023-04-30T20:05:07.272Z,22.40
2023-04-30T20:07:35.860Z,22.40
2023-04-30T20:10:04.154Z,22.40
2023-04-30T20:12:32.189Z,22.40
2023-04-30T20:15:00.391Z,22.40
2023-04-30T20:17:28.500Z,22.40
2023-04-30T20:19:57.092Z,22.40
2023-04-30T20:22:25.328Z,22.30
2023-04-30T20:24:53.436Z,22.40
2023-04-30T20:27:21.555Z,22.40
2023-04-30T20:29:49.576Z,22.40
2023-04-30T20:32:17.929Z,22.50
2023-04-30T20:34:45.950Z,22.40
2023-04-30T20:37:14.050Z,22.40
2023-04-30T20:39:43.017Z,22.40
2023-04-30T20:42:11.168Z,22.40
2023-04-30T20:44:39.157Z,22.30
2023-04-30T20:47:09.033Z,22.40
2023-04-30T20:49:37.851Z,22.30
2023-04-30T20:52:05.905Z,22.30
2023-04-30T20:54:34.040Z,22.40
2023-04-30T20:57:03.237Z,22.30
2023-04-30T20:59:31.650Z,22.40
2023-04-30T21:01:59.633Z,22.40
2023-04-30T21:04:27.809Z,22.40
2023-04-30T21:06:55.717Z,22.30
2023-04-30T21:09:23.790Z,22.30
2023-04-30T21:11:51.730Z,22.30
2023-04-30T21:14:19.648Z,22.40
2023-04-30T21:16:47.593Z,22.40
2023-04-30T21:19:15.955Z,22.30
2023-04-30T21:21:44.831Z,22.40
2023-04-30T21:24:13.215Z,22.40
2023-04-30T21:26:41.764Z,22.30
2023-04-30T21:29:10.114Z,22.30
2023-04-30T21:31:38.512Z,22.30
2023-04-30T21:34:06.325Z,22.30
2023-04-30T21:36:35.440Z,22.30
2023-04-30T21:39:04.181Z,22.30
2023-04-30T21:41:32.349Z,22.30
2023-04-30T21:44:00.305Z,22.30
2023-04-30T21:46:28.515Z,22.30
2023-04-30T21:48:56.828Z,22.30
2023-04-30T21:51:24.605Z,22.30
2023-04-30T21:53:52.486Z,22.30
2023-04-30T21:56:21.798Z,22.30
2023-04-30T21:58:49.862Z,22.30
2023-04-30T22:01:18.445Z,22.30
2023-04-30T22:03:46.677Z,22.30
2023-04-30T22:06:14.665Z,22.30
2023-04-30T22:08:42.587Z,22.30
2023-04-30T22:11:11.523Z,22.30
2023-04-30T22:13:39.530Z,22.30
2023-04-30T22:16:07.952Z,22.30
2023-04-30T22:18:36.098Z,22.30
2023-04-30T22:21:04.073Z,22.20
2023-04-30T22:23:32.021Z,22.30
2023-04-30T22:26:01.371Z,22.30
2023-04-30T22:28:29.198Z,22.30
2023-04-30T22:31:00.072Z,22.30
2023-04-30T22:33:28.454Z,22.30
2023-04-30T22:35:56.664Z,22.30
2023-04-30T22:38:24.573Z,22.30
2023-04-30T22:40:52.553Z,22.30
2023-04-30T22:43:20.503Z,22.20
2023-04-30T22:45:48.640Z,22.20
2023-04-30T22:48:16.779Z,22.20
2023-04-30T22:50:44.929Z,22.20
2023-04-30T22:53:13.542Z,22.20
2023-04-30T22:55:41.472Z,22.30
2023-04-30T22:58:09.604Z,22.30
2023-04-30T23:00:37.433Z,22.30
2023-04-30T23:03:05.410Z,22.40
2023-04-30T23:05:33.532Z,22.40
2023-04-30T23:08:01.473Z,22.40
2023-04-30T23:10:29.889Z,22.40
2023-04-30T23:12:58.865Z,22.50
2023-04-30T23:15:27.032Z,22.40
2023-04-30T23:17:55.950Z,22.40
2023-04-30T23:20:23.879Z,22.40
2023-04-30T23:22:51.923Z,22.40
2023-04-30T23:25:19.860Z,22.30
2023-04-30T23:27:48.314Z,22.30
2023-04-30T23:30:16.355Z,22.40
2023-04-30T23:32:44.087Z,22.40
2023-04-30T23:35:12.327Z,22.40
2023-04-30T23:37:40.384Z,22.40
2023-04-30T23:40:09.834Z,22.40
2023-04-30T23:42:37.515Z,22.40
2023-04-30T23:45:05.901Z,22.40
2023-04-30T23:47:36.310Z,22.50
2023-04-30T23:50:05.041Z,22.50
2023-04-30T23:52:33.369Z,22.40
2023-04-30T23:55:01.198Z,22.40
2023-04-30T23:57:29.050Z,22.40
2023-04-30T23:59:57.437Z,22.40
